createdAt,value
2023-01-11T00:00:21.926Z,19.98
2023-01-11T00:03:00.299Z,18.63
2023-01-11T00:05:29.750Z,20.38
2023-01-11T00:08:00.115Z,22.42
2023-01-11T00:10:44.678Z,18.33
2023-01-11T00:13:31.563Z,17.40
2023-01-11T00:16:05.993Z,19.83
2023-01-11T00:18:43.331Z,19.83
2023-01-11T00:21:11.300Z,20.15
2023-01-11T00:24:36.209Z,18.25
2023-01-11T00:27:30.417Z,19.67
2023-01-11T00:31:47.857Z,18.00
2023-01-11T00:33:08.564Z,17.95
2023-01-11T00:35:36.211Z,15.70
2023-01-11T00:38:43.165Z,17.90
2023-01-11T00:41:35.589Z,14.13
2023-01-11T00:44:39.620Z,16.10
2023-01-11T00:47:32.553Z,15.52
2023-01-11T00:50:06.042Z,21.02
2023-01-11T00:52:40.375Z,11.25
2023-01-11T00:58:04.844Z,12.60
2023-01-11T01:00:46.528Z,10.10
2023-01-11T01:03:16.749Z,14.85
2023-01-11T01:05:56.510Z,13.07
2023-01-11T01:08:38.483Z,13.23
2023-01-11T01:13:59.233Z,12.57
2023-01-11T01:16:48.720Z,13.98
2023-01-11T01:19:23.940Z,16.05
2023-01-11T01:21:57.747Z,15.20
2023-01-11T01:24:51.719Z,19.38
2023-01-11T01:27:37.219Z,14.70
2023-01-11T01:30:45.203Z,20.77
2023-01-11T01:33:16.082Z,17.60
2023-01-11T01:35:55.292Z,16.98
2023-01-11T01:38:31.685Z,20.85
2023-01-11T01:41:00.769Z,21.08
2023-01-11T01:43:49.078Z,23.33
2023-01-11T01:46:42.422Z,29.20
2023-01-11T01:49:28.794Z,18.77
2023-01-11T01:52:07.991Z,20.30
2023-01-11T01:54:41.741Z,21.60
2023-01-11T01:57:37.477Z,25.70
2023-01-11T02:00:10.709Z,23.77
2023-01-11T02:02:43.981Z,23.83
2023-01-11T02:05:23.311Z,19.17
2023-01-11T02:07:51.618Z,32.15
2023-01-11T02:10:23.319Z,21.52
2023-01-11T02:13:13.370Z,25.65
2023-01-11T02:16:07.916Z,26.77
2023-01-11T02:18:50.350Z,27.23
2023-01-11T02:21:27.406Z,29.75
2023-01-11T02:24:52.428Z,25.85
2023-01-11T02:28:18.279Z,26.10
2023-01-11T02:31:12.147Z,26.55
2023-01-11T02:34:26.082Z,26.95
2023-01-11T02:37:13.018Z,31.85
2023-01-11T02:39:49.313Z,35.03
2023-01-11T02:42:56.787Z,34.15
2023-01-11T02:45:53.777Z,36.97
2023-01-11T02:48:30.671Z,34.53
2023-01-11T02:51:02.012Z,36.83
2023-01-11T02:53:45.073Z,31.80
2023-01-11T02:56:14.350Z,41.65
2023-01-11T02:58:52.725Z,36.90
2023-01-11T03:01:30.494Z,40.33
2023-01-11T03:04:17.781Z,34.75
2023-01-11T03:07:01.783Z,40.45
2023-01-11T03:09:44.130Z,51.30
2023-01-11T03:12:55.068Z,41.60
2023-01-11T03:15:41.892Z,43.33
2023-01-11T03:18:23.998Z,42.25
2023-01-11T03:20:54.454Z,46.30
2023-01-11T03:23:47.073Z,52.60
2023-01-11T03:26:17.767Z,41.33
2023-01-11T03:29:06.913Z,51.33
2023-01-11T03:31:43.686Z,54.08
2023-01-11T03:34:40.301Z,40.03
2023-01-11T03:37:32.210Z,42.28
2023-01-11T03:40:06.543Z,50.77
2023-01-11T03:43:16.693Z,46.30
2023-01-11T03:46:19.871Z,35.53
2023-01-11T03:48:55.052Z,49.90
2023-01-11T03:54:20.398Z,39.30
2023-01-11T03:57:06.328Z,33.60
2023-01-11T03:59:37.531Z,35.08
2023-01-11T04:02:30.083Z,34.83
2023-01-11T04:05:01.177Z,34.00
2023-01-11T04:07:31.728Z,30.83
2023-01-11T04:12:39.770Z,30.70
2023-01-11T04:15:16.557Z,38.72
2023-01-11T04:18:10.883Z,41.25
2023-01-11T04:20:57.677Z,38.95
2023-01-11T04:23:35.785Z,43.63
2023-01-11T04:26:14.051Z,39.05
2023-01-11T04:34:25.524Z,37.58
2023-01-11T04:37:50.305Z,37.10
2023-01-11T04:39:54.125Z,38.25
2023-01-11T04:42:35.506Z,27.40
2023-01-11T04:45:27.588Z,25.13
2023-01-11T04:48:07.249Z,31.75
2023-01-11T04:51:12.164Z,20.90
2023-01-11T04:53:44.361Z,20.55
2023-01-11T04:56:14.837Z,16.93
2023-01-11T04:58:59.088Z,21.42
2023-01-11T05:01:30.126Z,28.48
2023-01-11T05:04:21.695Z,22.38
2023-01-11T05:07:11.443Z,26.05
2023-01-11T05:12:50.784Z,24.00
2023-01-11T05:15:27.347Z,29.55
2023-01-11T05:18:15.242Z,19.60
2023-01-11T05:20:53.235Z,22.50
2023-01-11T05:26:37.420Z,21.67
2023-01-11T05:29:08.512Z,25.67
2023-01-11T05:32:02.643Z,23.10
2023-01-11T05:34:35.294Z,19.38
2023-01-11T05:39:41.187Z,20.10
2023-01-11T05:42:35.367Z,20.85
2023-01-11T05:45:33.323Z,18.05
2023-01-11T05:48:24.252Z,21.88
2023-01-11T05:51:12.800Z,16.33
2023-01-11T05:53:49.560Z,21.63
2023-01-11T05:56:21.728Z,18.08
2023-01-11T05:59:04.179Z,24.83
2023-01-11T06:01:46.497Z,16.95
2023-01-11T06:04:33.997Z,21.45
2023-01-11T06:07:16.575Z,22.40
2023-01-11T06:09:57.938Z,23.20
2023-01-11T06:12:51.799Z,24.20
2023-01-11T06:15:30.841Z,17.17
2023-01-11T06:18:09.135Z,17.75
2023-01-11T06:20:37.154Z,27.38
2023-01-11T06:23:05.829Z,23.27
2023-01-11T06:25:42.795Z,19.02
2023-01-11T06:28:33.890Z,15.38
2023-01-11T06:31:09.978Z,17.83
2023-01-11T06:33:41.561Z,17.17
2023-01-11T06:36:16.366Z,13.45
2023-01-11T06:39:02.172Z,18.52
2023-01-11T06:41:37.637Z,18.60
2023-01-11T06:44:30.516Z,15.43
2023-01-11T06:47:15.389Z,16.48
2023-01-11T06:49:48.022Z,15.40
2023-01-11T06:52:33.348Z,9.77
2023-01-11T06:55:04.313Z,18.10
2023-01-11T06:57:42.382Z,17.27
2023-01-11T07:00:13.740Z,22.02
2023-01-11T07:02:44.146Z,12.93
2023-01-11T07:05:19.357Z,17.20
2023-01-11T07:07:48.902Z,15.90
2023-01-11T07:10:27.112Z,17.75
2023-01-11T07:13:02.845Z,15.57
2023-01-11T07:15:35.587Z,19.98
2023-01-11T07:18:22.124Z,16.45
2023-01-11T07:21:00.332Z,23.02
2023-01-11T07:23:28.009Z,15.25
2023-01-11T07:25:55.790Z,15.48
2023-01-11T07:28:23.604Z,15.68
2023-01-11T07:30:58.772Z,14.95
2023-01-11T07:33:27.416Z,17.80
2023-01-11T07:35:55.410Z,19.20
2023-01-11T07:38:23.652Z,15.18
2023-01-11T07:40:51.466Z,19.20
2023-01-11T07:43:21.554Z,18.08
2023-01-11T07:45:50.762Z,13.85
2023-01-11T07:48:25.449Z,20.20
2023-01-11T07:50:53.518Z,20.70
2023-01-11T07:53:21.741Z,20.95
2023-01-11T07:55:49.421Z,19.25
2023-01-11T07:58:17.099Z,16.77
2023-01-11T08:00:46.167Z,25.65
2023-01-11T08:03:14.531Z,20.05
2023-01-11T08:05:42.681Z,22.55
2023-01-11T08:08:10.541Z,22.75
2023-01-11T08:10:40.399Z,20.30
2023-01-11T08:13:51.273Z,28.33
2023-01-11T08:16:19.166Z,24.35
2023-01-11T08:18:47.193Z,21.98
2023-01-11T08:21:14.972Z,25.75
2023-01-11T08:23:42.763Z,21.85
2023-01-11T08:26:10.743Z,20.17
2023-01-11T08:28:38.595Z,15.68
2023-01-11T08:31:30.851Z,23.95
2023-01-11T08:34:27.979Z,22.30
2023-01-11T08:37:38.310Z,19.40
2023-01-11T08:40:24.478Z,21.58
2023-01-11T08:43:36.719Z,19.42
2023-01-11T08:46:05.314Z,25.13
2023-01-11T08:51:20.789Z,19.35
2023-01-11T08:54:04.197Z,19.98
2023-01-11T08:56:41.177Z,22.77
2023-01-11T08:59:16.587Z,22.33
2023-01-11T09:01:54.824Z,21.92
2023-01-11T09:04:47.466Z,20.75
2023-01-11T09:07:30.042Z,24.27
2023-01-11T09:10:08.990Z,20.55
2023-01-11T09:12:55.947Z,19.98
2023-01-11T09:16:13.984Z,18.98
2023-01-11T09:19:16.700Z,18.98
2023-01-11T09:21:21.212Z,30.27
2023-01-11T09:24:06.493Z,17.50
2023-01-11T09:26:46.072Z,20.58
2023-01-11T09:29:21.783Z,21.97
2023-01-11T09:34:30.892Z,21.25
2023-01-11T09:37:04.114Z,14.07
2023-01-11T09:42:42.028Z,24.57
2023-01-11T09:45:23.000Z,20.10
2023-01-11T09:48:03.705Z,15.98
2023-01-11T09:50:42.159Z,14.75
2023-01-11T09:53:31.880Z,16.38
2023-01-11T09:56:17.215Z,16.30
2023-01-11T09:59:14.916Z,16.42
2023-01-11T10:02:19.413Z,14.70
2023-01-11T10:05:12.915Z,22.63
2023-01-11T10:18:28.164Z,24.30
2023-01-11T10:18:31.137Z,25.85
2023-01-11T10:20:35.255Z,19.25
2023-01-11T10:23:10.020Z,21.38
2023-01-11T10:25:48.514Z,19.83
2023-01-11T10:28:23.347Z,25.33
2023-01-11T10:30:59.718Z,20.42
2023-01-11T10:33:55.190Z,20.05
2023-01-11T10:36:55.637Z,25.60
2023-01-11T10:39:52.036Z,18.48
2023-01-11T10:42:24.514Z,19.98
2023-01-11T10:44:52.752Z,21.02
2023-01-11T10:47:22.830Z,26.60
2023-01-11T10:50:06.635Z,23.35
2023-01-11T10:53:01.135Z,26.40
2023-01-11T10:55:40.370Z,21.85
2023-01-11T10:58:23.899Z,25.42
2023-01-11T11:01:18.889Z,22.88
2023-01-11T11:03:57.767Z,22.02
2023-01-11T11:06:33.551Z,22.90
2023-01-11T11:09:01.232Z,27.00
2023-01-11T11:11:33.600Z,30.90
2023-01-11T11:14:07.383Z,25.77
2023-01-11T11:16:41.867Z,34.40
2023-01-11T11:19:12.357Z,27.58
2023-01-11T11:21:41.542Z,25.23
2023-01-11T11:24:16.073Z,24.33
2023-01-11T11:26:45.991Z,32.25
2023-01-11T11:29:20.764Z,32.28
2023-01-11T11:31:48.740Z,26.52
2023-01-11T11:34:18.615Z,31.98
2023-01-11T11:36:50.546Z,25.90
2023-01-11T11:39:20.519Z,28.50
2023-01-11T11:41:50.057Z,22.05
2023-01-11T11:44:20.831Z,34.67
2023-01-11T11:46:58.763Z,25.63
2023-01-11T11:49:26.691Z,28.50
2023-01-11T11:51:54.663Z,28.75
2023-01-11T11:54:43.297Z,26.08
2023-01-11T11:57:16.376Z,29.55
2023-01-11T11:59:48.517Z,31.13
2023-01-11T12:02:27.056Z,31.75
2023-01-11T12:04:55.769Z,27.60
2023-01-11T12:07:28.324Z,24.80
2023-01-11T12:09:58.762Z,33.85
2023-01-11T12:12:29.365Z,30.52
2023-01-11T12:15:15.828Z,32.30
2023-01-11T12:17:44.109Z,31.33
2023-01-11T12:20:32.212Z,31.23
2023-01-11T12:23:25.688Z,31.75
2023-01-11T12:26:19.020Z,34.42
2023-01-11T12:28:55.374Z,31.70
2023-01-11T12:31:37.661Z,40.60
2023-01-11T12:34:43.565Z,41.60
2023-01-11T12:37:24.176Z,33.80
2023-01-11T12:40:11.724Z,28.23
2023-01-11T12:42:54.455Z,29.80
2023-01-11T12:48:55.996Z,31.50
2023-01-11T12:51:48.427Z,36.83
2023-01-11T12:54:59.160Z,34.55
2023-01-11T12:57:55.484Z,28.70
2023-01-11T13:00:47.703Z,29.65
2023-01-11T13:03:38.845Z,33.63
2023-01-11T13:06:37.799Z,41.97
2023-01-11T13:09:29.709Z,34.53
2023-01-11T13:12:14.577Z,31.88
2023-01-11T13:15:17.728Z,37.83
2023-01-11T13:17:47.832Z,41.83
2023-01-11T13:20:15.565Z,39.80
2023-01-11T13:22:47.529Z,47.30
2023-01-11T13:25:18.012Z,39.58
2023-01-11T13:27:46.357Z,36.25
2023-01-11T13:30:17.833Z,34.63
2023-01-11T13:32:53.288Z,36.80
2023-01-11T13:35:24.545Z,40.97
2023-01-11T13:37:57.802Z,38.42
2023-01-11T13:40:40.856Z,36.65
2023-01-11T13:43:12.443Z,39.25
2023-01-11T13:45:44.996Z,43.42
2023-01-11T13:48:27.515Z,29.50
2023-01-11T13:50:55.274Z,35.65
2023-01-11T13:53:43.251Z,36.88
2023-01-11T13:56:15.832Z,33.95
2023-01-11T13:59:03.085Z,37.60
2023-01-11T14:01:56.964Z,36.72
2023-01-11T14:04:29.260Z,36.90
2023-01-11T14:07:11.449Z,33.30
2023-01-11T14:09:39.047Z,38.47
2023-01-11T14:12:18.433Z,37.47
2023-01-11T14:15:02.110Z,29.92
2023-01-11T14:17:49.952Z,30.92
2023-01-11T14:20:27.052Z,28.00
2023-01-11T14:23:14.719Z,31.95
2023-01-11T14:26:17.042Z,38.42
2023-01-11T14:29:02.978Z,30.75
2023-01-11T14:34:41.046Z,34.33
2023-01-11T14:37:32.762Z,33.03
2023-01-11T14:40:17.906Z,31.05
2023-01-11T14:43:06.917Z,28.92
2023-01-11T14:46:16.388Z,33.00
2023-01-11T14:49:10.733Z,31.38
2023-01-11T14:51:53.776Z,33.78
2023-01-11T14:54:27.986Z,34.85
2023-01-11T14:57:00.488Z,38.78
2023-01-11T14:59:52.004Z,36.65
2023-01-11T15:02:31.134Z,28.17
2023-01-11T15:05:01.375Z,30.48
2023-01-11T15:07:34.593Z,30.25
2023-01-11T15:10:04.853Z,30.23
2023-01-11T15:16:46.051Z,28.98
2023-01-11T15:21:38.405Z,41.00
2023-01-11T15:24:11.042Z,29.85
2023-01-11T15:27:02.948Z,33.53
2023-01-11T15:29:39.042Z,32.78
2023-01-11T15:32:19.777Z,44.05
2023-01-11T15:34:58.082Z,37.22
2023-01-11T15:38:05.747Z,31.73
2023-01-11T15:40:48.353Z,31.90
2023-01-11T15:43:37.119Z,38.83
2023-01-11T15:46:39.025Z,30.83
2023-01-11T15:49:35.540Z,31.05
2023-01-11T15:52:21.306Z,33.35
2023-01-11T15:55:10.947Z,25.05
2023-01-11T15:57:46.108Z,37.65
2023-01-11T16:00:28.644Z,32.13
2023-01-11T16:03:33.126Z,26.17
2023-01-11T16:06:32.176Z,30.23
2023-01-11T16:09:20.974Z,34.95
2023-01-11T16:12:02.687Z,29.48
2023-01-11T16:15:09.242Z,31.92
2023-01-11T16:17:46.995Z,44.40
2023-01-11T16:20:40.101Z,31.08
2023-01-11T16:23:25.418Z,34.42
2023-01-11T16:25:57.747Z,32.65
2023-01-11T16:28:26.393Z,34.45
2023-01-11T16:30:58.557Z,36.63
2023-01-11T16:33:28.089Z,30.08
2023-01-11T16:36:05.727Z,28.90
2023-01-11T16:38:35.783Z,30.85
2023-01-11T16:41:03.634Z,38.13
2023-01-11T16:43:33.552Z,34.00
2023-01-11T16:46:01.347Z,30.17
2023-01-11T16:48:30.056Z,24.13
2023-01-11T16:51:14.305Z,23.80
2023-01-11T16:53:43.394Z,40.35
2023-01-11T16:56:19.211Z,42.47
2023-01-11T16:59:04.755Z,34.08
2023-01-11T17:01:49.118Z,37.60
2023-01-11T17:04:27.548Z,26.95
2023-01-11T17:06:55.419Z,33.75
2023-01-11T17:09:26.050Z,37.47
2023-01-11T17:11:54.274Z,29.13
2023-01-11T17:14:34.152Z,22.40
2023-01-11T17:17:03.743Z,31.60
2023-01-11T17:19:35.322Z,35.97
2023-01-11T17:22:07.531Z,32.80
2023-01-11T17:24:41.707Z,37.28
2023-01-11T17:27:16.676Z,32.00
2023-01-11T17:29:45.302Z,28.45
2023-01-11T17:32:16.408Z,40.63
2023-01-11T17:34:44.413Z,33.05
2023-01-11T17:37:14.419Z,34.67
2023-01-11T17:39:44.888Z,36.38
2023-01-11T17:42:33.957Z,32.45
2023-01-11T17:45:13.117Z,32.97
2023-01-11T17:47:41.783Z,33.03
2023-01-11T17:50:24.231Z,36.13
2023-01-11T17:52:55.672Z,27.08
2023-01-11T17:55:27.758Z,23.13
2023-01-11T17:58:09.661Z,28.13
2023-01-11T18:00:37.648Z,30.92
2023-01-11T18:03:10.939Z,30.35
2023-01-11T18:05:40.744Z,45.35
2023-01-11T18:08:17.341Z,31.85
2023-01-11T18:10:49.811Z,31.60
2023-01-11T18:13:26.730Z,25.88
2023-01-11T18:15:54.572Z,28.42
2023-01-11T18:18:42.522Z,31.55
2023-01-11T18:21:30.393Z,32.75
2023-01-11T18:24:10.948Z,30.15
2023-01-11T18:26:39.800Z,33.85
2023-01-11T18:29:18.642Z,29.20
2023-01-11T18:31:49.740Z,28.85
2023-01-11T18:34:17.337Z,38.38
2023-01-11T18:36:44.985Z,36.78
2023-01-11T18:39:13.128Z,38.30
2023-01-11T18:41:59.498Z,28.63
2023-01-11T18:44:28.617Z,32.60
2023-01-11T18:46:56.472Z,36.72
2023-01-11T18:49:24.066Z,29.65
2023-01-11T18:51:53.569Z,41.47
2023-01-11T18:54:21.410Z,34.67
2023-01-11T18:56:49.274Z,30.90
2023-01-11T18:59:16.946Z,27.85
2023-01-11T19:01:56.586Z,25.90
2023-01-11T19:04:26.350Z,24.85
2023-01-11T19:06:54.025Z,25.35
2023-01-11T19:09:21.731Z,25.73
2023-01-11T19:11:49.693Z,25.67
2023-01-11T19:14:17.435Z,21.23
2023-01-11T19:16:45.103Z,23.45
2023-01-11T19:19:12.984Z,22.83
2023-01-11T19:21:40.801Z,28.17
2023-01-11T19:24:09.080Z,22.00
2023-01-11T19:26:39.361Z,26.58
2023-01-11T19:29:07.313Z,22.27
2023-01-11T19:31:35.338Z,27.77
2023-01-11T19:34:06.095Z,30.50
2023-01-11T19:36:33.859Z,27.35
2023-01-11T19:39:01.965Z,40.25
2023-01-11T19:41:49.644Z,27.33
2023-01-11T19:44:17.276Z,37.90
2023-01-11T19:46:46.849Z,29.27
2023-01-11T19:49:14.736Z,29.05
2023-01-11T19:51:42.764Z,26.92
2023-01-11T19:54:17.375Z,27.90
2023-01-11T19:56:45.419Z,26.10
2023-01-11T19:59:13.145Z,30.98
2023-01-11T20:01:41.462Z,27.90
2023-01-11T20:04:11.574Z,26.95
2023-01-11T20:06:41.202Z,31.35
2023-01-11T20:09:11.118Z,28.10
2023-01-11T20:11:38.754Z,21.52
2023-01-11T20:14:06.481Z,19.77
2023-01-11T20:16:34.257Z,33.38
2023-01-11T20:19:01.946Z,20.27
2023-01-11T20:21:31.619Z,25.65
2023-01-11T20:23:59.356Z,28.40
2023-01-11T20:26:28.153Z,27.65
2023-01-11T20:28:56.833Z,35.92
2023-01-11T20:31:28.808Z,28.80
2023-01-11T20:33:56.928Z,32.20
2023-01-11T20:36:25.496Z,36.22
2023-01-11T20:38:54.210Z,33.55
2023-01-11T20:41:42.668Z,38.28
2023-01-11T20:44:10.836Z,35.50
2023-01-11T20:46:38.921Z,35.40
2023-01-11T20:49:07.270Z,40.53
2023-01-11T20:51:35.755Z,37.28
2023-01-11T20:54:04.135Z,33.53
2023-01-11T20:56:33.212Z,36.70
2023-01-11T20:59:01.529Z,34.65
2023-01-11T21:01:32.552Z,34.13
2023-01-11T21:04:01.799Z,39.03
2023-01-11T21:06:30.950Z,34.35
2023-01-11T21:08:59.912Z,22.25
2023-01-11T21:11:28.061Z,28.13
2023-01-11T21:16:34.923Z,29.88
2023-01-11T21:22:03.433Z,26.73
2023-01-11T21:24:44.022Z,25.33
2023-01-11T21:27:15.394Z,33.22
2023-01-11T21:29:56.890Z,23.55
2023-01-11T21:32:56.257Z,27.27
2023-01-11T21:35:24.169Z,23.05
2023-01-11T21:37:55.336Z,32.53
2023-01-11T21:40:40.867Z,21.73
2023-01-11T21:43:28.073Z,25.90
2023-01-11T21:46:16.264Z,23.27
2023-01-11T21:48:46.839Z,18.98
2023-01-11T21:51:27.211Z,30.80
2023-01-11T21:53:59.261Z,23.48
2023-01-11T21:56:27.361Z,27.20
2023-01-11T21:58:57.665Z,22.30
2023-01-11T22:01:30.258Z,22.27
2023-01-11T22:03:58.024Z,25.50
2023-01-11T22:06:26.198Z,18.33
2023-01-11T22:11:33.920Z,27.13
2023-01-11T22:14:24.741Z,36.70
2023-01-11T22:17:19.116Z,23.63
2023-01-11T22:20:09.111Z,34.60
2023-01-11T22:22:47.179Z,31.05
2023-01-11T22:25:17.239Z,30.10
2023-01-11T22:27:46.778Z,27.60
2023-01-11T22:30:32.167Z,22.40
2023-01-11T22:33:11.189Z,30.30
2023-01-11T22:35:44.030Z,22.35
2023-01-11T22:41:01.489Z,24.35
2023-01-11T22:43:31.907Z,23.60
2023-01-11T22:46:03.857Z,23.88
2023-01-11T22:48:36.103Z,27.17
2023-01-11T22:51:27.154Z,24.65
2023-01-11T22:54:14.026Z,29.40
2023-01-11T22:56:56.036Z,23.30
2023-01-11T22:59:52.576Z,24.27
2023-01-11T23:02:26.580Z,21.40
2023-01-11T23:05:22.272Z,25.95
2023-01-11T23:08:10.439Z,28.00
2023-01-11T23:10:48.000Z,16.98
2023-01-11T23:13:38.082Z,22.88
2023-01-11T23:19:08.187Z,25.33
2023-01-11T23:21:45.947Z,16.63
2023-01-11T23:24:19.278Z,18.25
2023-01-11T23:27:07.709Z,16.42
2023-01-11T23:29:42.608Z,20.45
2023-01-11T23:32:10.542Z,15.45
2023-01-11T23:34:39.475Z,21.50
2023-01-11T23:37:12.443Z,20.05
2023-01-11T23:43:12.917Z,22.90
2023-01-11T23:45:27.144Z,19.13
2023-01-11T23:48:07.608Z,15.80
2023-01-11T23:50:42.121Z,20.63
2023-01-11T23:53:14.425Z,17.48
2023-01-11T23:55:52.716Z,22.75
2023-01-11T23:58:46.771Z,29.80
